Jin Tao — VRJM9 — position and weather

sailwx.info

Track history (hours):
 
Tides and Currents Weather Stations Pressure Air Temp Water Temp Dewpoint Dewpoint Depression Visibility Wind Speed Wind Dir Waves Ship Positions

Jin Tao

Last reported at 2017-Dec-10 19:56 UTC. Time now 2017-Dec-14 06:30 UTC.
Position N 01°15' E 104°05'.

Length 190 m; draft 12.6 m.

Type: Cargo ship. MMSI: 477766200.

Date/timePositionNaut miles runAvg speedWind from/ knotsBaromVisibWave heightAir tempDewpointWater temp
2017-Dec-10 19:56N 01°15' E 104°05'4 8.1
2017-Dec-10 19:24N 01°17' E 104°01'1 0.5
2017-Dec-10 17:22N 01°17' E 103°60'0 0.0
2017-Dec-10 06:17N 01°17' E 103°60'2 6.5
2017-Dec-10 05:56N 01°16' E 103°57'2 3.8
2017-Dec-10 05:29N 01°14' E 103°57'3 5.9
2017-Dec-10 04:59N 01°13' E 103°55'4 7.7
2017-Dec-10 04:28N 01°11' E 103°51'4 7.5
2017-Dec-10 03:56N 01°09' E 103°47'3 7.8
2017-Dec-10 03:30N 01°07' E 103°45'4 7.8
2017-Dec-10 03:00N 01°04' E 103°42'4 8.0
2017-Dec-10 02:28N 01°03' E 103°38'5 8.9
2017-Dec-10 01:54N 01°05' E 103°34'510.7
2017-Dec-10 01:28N 01°08' E 103°30'610.9
2017-Dec-10 00:57N 01°11' E 103°25'  
Track history (hours):
 
Tides and Currents Weather Stations Pressure Air Temp Water Temp Dewpoint Dewpoint Depression Visibility Wind Speed Wind Dir Waves Ship Positions

Jin Tao

Last reported at 2017-Dec-10 19:56 UTC. Time now 2017-Dec-14 06:30 UTC.
Position N 01°15' E 104°05'.

Length 190 m; draft 12.6 m.

Type: Cargo ship. MMSI: 477766200.

Date/timePositionNaut miles runAvg speedWind from/ knotsBaromVisibWave heightAir tempDewpointWater temp
2017-Dec-10 19:56N 01°15' E 104°05'4 8.1
2017-Dec-10 19:24N 01°17' E 104°01'1 0.5
2017-Dec-10 17:22N 01°17' E 103°60'0 0.0
2017-Dec-10 06:17N 01°17' E 103°60'2 6.5
2017-Dec-10 05:56N 01°16' E 103°57'2 3.8
2017-Dec-10 05:29N 01°14' E 103°57'3 5.9
2017-Dec-10 04:59N 01°13' E 103°55'4 7.7
2017-Dec-10 04:28N 01°11' E 103°51'4 7.5
2017-Dec-10 03:56N 01°09' E 103°47'3 7.8
2017-Dec-10 03:30N 01°07' E 103°45'4 7.8
2017-Dec-10 03:00N 01°04' E 103°42'4 8.0
2017-Dec-10 02:28N 01°03' E 103°38'5 8.9
2017-Dec-10 01:54N 01°05' E 103°34'510.7
2017-Dec-10 01:28N 01°08' E 103°30'610.9
2017-Dec-10 00:57N 01°11' E 103°25'  

Dump ship's entire track history